Time;durP1;ratioP1;P1;durP2;ratioP2;P2;SDS_P1;SDS_P2;PMS_P1;PMS_P2;Temp;Humidity;BMP_temperature;BMP_pressure;BME280_temperature;BME280_humidity;BME280_pressure;Samples;Min_cycle;Max_cycle;Signal;HPM_P1;HPM_P2
2022/03/31 00:00:57;;;;;;;69.35;44.97;;;;;;;6.31;100.00;97392.38;2082605;28;20190;-70
2022/03/31 00:02:00;;;;;;;63.72;43.67;;;;;;;6.23;100.00;97392.03;2082839;28;20649;-70
2022/03/31 00:03:04;;;;;;;64.82;44.10;;;;;;;6.29;100.00;97391.91;2082706;28;20272;-70
2022/03/31 00:04:05;;;;;;;64.72;44.28;;;;;;;6.31;100.00;97392.38;2082765;28;20274;-70
2022/03/31 00:05:08;;;;;;;58.50;43.20;;;;;;;6.31;100.00;97371.19;2082099;28;20202;-70
2022/03/31 00:06:10;;;;;;;64.85;43.78;;;;;;;6.19;100.00;97364.63;2081447;28;20200;-70
2022/03/31 00:07:11;;;;;;;59.80;41.95;;;;;;;6.17;100.00;97361.50;2082592;28;20203;-70
2022/03/31 00:08:15;;;;;;;59.25;41.67;;;;;;;6.12;100.00;97355.56;2082763;28;20215;-70
2022/03/31 00:09:18;;;;;;;60.15;41.95;;;;;;;6.09;100.00;97359.63;2082543;28;20200;-70
2022/03/31 00:10:24;;;;;;;56.55;41.08;;;;;;;6.04;100.00;97359.75;2082708;28;20191;-70
2022/03/31 00:11:26;;;;;;;54.38;39.63;;;;;;;6.01;100.00;97364.91;2082606;28;20168;-70
2022/03/31 00:12:28;;;;;;;59.53;40.35;;;;;;;6.06;100.00;97364.75;2082501;28;20241;-70
2022/03/31 00:13:31;;;;;;;54.80;39.65;;;;;;;6.10;100.00;97371.00;2082541;28;20197;-70
2022/03/31 00:14:32;;;;;;;53.83;38.80;;;;;;;6.02;100.00;97380.47;2082558;28;20593;-70
2022/03/31 00:15:34;;;;;;;52.40;39.07;;;;;;;6.08;100.00;97387.19;2082077;28;20265;-70
2022/03/31 00:16:35;;;;;;;36.83;30.33;;;;;;;6.19;100.00;97385.81;2081933;28;20662;-70
2022/03/31 00:17:39;;;;;;;38.00;33.08;;;;;;;6.13;100.00;97391.56;2082255;28;20215;-70
2022/03/31 00:18:43;;;;;;;43.63;33.42;;;;;;;6.07;100.00;97382.19;2082515;28;20215;-70
2022/03/31 00:19:44;;;;;;;43.45;35.30;;;;;;;6.10;100.00;97385.00;2081773;28;20295;-70
2022/03/31 00:20:46;;;;;;;43.03;34.72;;;;;;;6.01;100.00;97388.72;2073599;28;20702;-70
2022/03/31 00:21:48;;;;;;;44.00;35.42;;;;;;;6.09;100.00;97388.75;2081522;28;20223;-70
2022/03/31 00:22:50;;;;;;;41.97;34.90;;;;;;;5.97;100.00;97393.84;2082388;28;20717;-70
2022/03/31 00:23:51;;;;;;;42.03;34.15;;;;;;;6.10;100.00;97400.13;2082482;28;20657;-70
2022/03/31 00:24:55;;;;;;;45.22;35.83;;;;;;;6.07;100.00;97401.50;2081791;28;20574;-70
2022/03/31 00:25:58;;;;;;;37.78;33.67;;;;;;;6.08;100.00;97400.44;2081922;28;20699;-70
2022/03/31 00:27:00;;;;;;;42.65;33.78;;;;;;;6.18;100.00;97400.13;2082421;28;20193;-70
2022/03/31 00:28:03;;;;;;;40.03;33.28;;;;;;;6.17;100.00;97390.63;2081573;28;20616;-70
2022/03/31 00:29:07;;;;;;;37.03;31.83;;;;;;;6.24;100.00;97379.56;2073975;28;20727;-70
2022/03/31 00:30:13;;;;;;;39.88;33.85;;;;;;;6.04;100.00;97367.69;2081882;28;20230;-70
2022/03/31 00:31:15;;;;;;;44.58;34.67;;;;;;;5.99;100.00;97362.53;2082459;28;20172;-70
2022/03/31 00:32:18;;;;;;;42.75;34.08;;;;;;;5.94;100.00;97347.59;2081550;28;20196;-70
2022/03/31 00:33:25;;;;;;;44.58;34.72;;;;;;;5.95;100.00;97354.44;2081842;28;20195;-70
2022/03/31 00:34:26;;;;;;;42.80;34.83;;;;;;;5.88;100.00;97343.47;2081700;28;20200;-70
2022/03/31 00:35:29;;;;;;;42.38;35.30;;;;;;;5.79;100.00;97347.97;2081799;28;20188;-70
2022/03/31 00:36:31;;;;;;;44.13;35.55;;;;;;;5.80;100.00;97351.41;2081938;28;20224;-70
2022/03/31 00:37:34;;;;;;;47.47;36.22;;;;;;;5.71;100.00;97354.00;2082369;28;20554;-70
2022/03/31 00:38:38;;;;;;;43.58;34.92;;;;;;;5.67;100.00;97359.16;2082478;28;20195;-70
2022/03/31 00:39:39;;;;;;;48.55;36.13;;;;;;;5.59;100.00;97359.09;2082425;28;20204;-70
2022/03/31 00:40:41;;;;;;;44.08;35.53;;;;;;;5.58;100.00;97368.91;2082375;28;20203;-70
2022/03/31 00:41:45;;;;;;;44.08;35.50;;;;;;;5.67;100.00;97361.78;2082402;28;20663;-70
2022/03/31 00:42:51;;;;;;;44.75;35.58;;;;;;;5.77;100.00;97373.19;2082333;28;20646;-70
2022/03/31 00:43:54;;;;;;;43.58;34.70;;;;;;;5.87;100.00;97372.91;2082537;28;20168;-70
2022/03/31 00:44:56;;;;;;;44.22;34.83;;;;;;;5.84;100.00;97373.53;2082312;28;20658;-70
2022/03/31 00:45:58;;;;;;;48.05;36.35;;;;;;;5.73;100.00;97366.94;2081550;28;20279;-70
2022/03/31 00:47:00;;;;;;;46.05;36.05;;;;;;;5.67;100.00;97371.59;2081810;28;20644;-70
2022/03/31 00:48:05;;;;;;;43.67;35.05;;;;;;;5.54;100.00;97361.88;2082328;28;20184;-71
2022/03/31 00:49:08;;;;;;;44.95;35.70;;;;;;;5.46;100.00;97373.97;2082126;28;20235;-70
2022/03/31 00:50:11;;;;;;;44.47;35.22;;;;;;;5.35;100.00;97370.03;2081814;28;20195;-70
2022/03/31 00:51:12;;;;;;;44.72;35.88;;;;;;;5.37;100.00;97376.56;2081432;28;20254;-70
2022/03/31 00:52:15;;;;;;;47.78;35.90;;;;;;;5.43;100.00;97382.53;2081466;28;20203;-70
2022/03/31 00:53:16;;;;;;;42.00;32.92;;;;;;;5.37;100.00;97384.50;2081568;28;20207;-70
2022/03/31 00:54:20;;;;;;;44.47;35.03;;;;;;;5.35;100.00;97378.75;2081603;28;20657;-70
2022/03/31 00:55:24;;;;;;;42.05;34.03;;;;;;;5.26;100.00;97377.91;2081696;28;20198;-70
2022/03/31 00:56:26;;;;;;;40.88;34.22;;;;;;;5.23;100.00;97375.09;2082262;28;20692;-70
2022/03/31 00:57:29;;;;;;;42.97;33.85;;;;;;;5.29;100.00;97379.16;2082240;28;20190;-70
2022/03/31 00:58:31;;;;;;;39.88;33.92;;;;;;;5.29;100.00;97387.09;2082247;28;20191;-70
2022/03/31 00:59:33;;;;;;;43.88;35.10;;;;;;;5.25;100.00;97378.22;2081438;28;20203;-70
2022/03/31 01:00:35;;;;;;;36.13;32.22;;;;;;;5.27;100.00;97376.06;2081756;28;20670;-70
2022/03/31 01:01:38;;;;;;;39.05;33.30;;;;;;;5.19;100.00;97374.13;2082227;28;20199;-69
2022/03/31 01:02:40;;;;;;;38.45;33.50;;;;;;;5.19;100.00;97379.41;2082226;28;20186;-70
2022/03/31 01:03:42;;;;;;;40.83;34.25;;;;;;;5.04;100.00;97378.72;2081463;28;20381;-70
2022/03/31 01:04:46;;;;;;;45.13;35.58;;;;;;;4.89;100.00;97371.16;2081529;28;20219;-70
2022/03/31 01:05:47;;;;;;;46.38;35.67;;;;;;;4.85;100.00;97378.09;2081859;28;20241;-70
2022/03/31 01:06:50;;;;;;;43.22;35.08;;;;;;;4.84;100.00;97381.81;2081321;28;20223;-70
2022/03/31 01:07:51;;;;;;;45.05;35.80;;;;;;;4.85;100.00;97375.47;2082173;28;20693;-70
2022/03/31 01:08:53;;;;;;;45.33;35.83;;;;;;;4.83;100.00;97373.13;2082210;28;20219;-70
2022/03/31 01:09:55;;;;;;;44.33;34.83;;;;;;;4.74;100.00;97374.13;2082185;28;20195;-70
2022/03/31 01:10:59;;;;;;;42.65;35.20;;;;;;;4.71;100.00;97383.44;2082176;28;20606;-70
2022/03/31 01:12:01;;;;;;;44.38;36.08;;;;;;;4.62;100.00;97371.25;2081685;28;20299;-70
2022/03/31 01:13:06;;;;;;;46.67;35.42;;;;;;;4.64;100.00;97395.50;2073307;28;20230;-70
2022/03/31 01:14:07;;;;;;;39.45;33.85;;;;;;;4.78;100.00;97385.69;2081605;28;20673;-70
2022/03/31 01:15:12;;;;;;;46.10;35.10;;;;;;;4.80;100.00;97383.53;2082122;28;20662;-70
2022/03/31 01:16:15;;;;;;;46.78;36.65;;;;;;;4.63;100.00;97378.88;2082161;28;20196;-70
2022/03/31 01:17:20;;;;;;;49.58;36.72;;;;;;;4.50;100.00;97379.69;2081480;28;20675;-70
2022/03/31 01:18:22;;;;;;;44.92;36.63;;;;;;;4.45;100.00;97391.16;2073253;28;20204;-71
2022/03/31 01:19:24;;;;;;;46.33;38.10;;;;;;;4.46;100.00;97389.28;2081348;28;20199;-71
2022/03/31 01:20:27;;;;;;;47.70;36.67;;;;;;;4.49;100.00;97386.03;2081535;28;20536;-71
2022/03/31 01:21:28;;;;;;;51.10;38.50;;;;;;;4.40;100.00;97385.19;2081767;28;20227;-71
2022/03/31 01:22:31;;;;;;;52.65;38.75;;;;;;;4.44;100.00;97397.50;2082140;28;20183;-71
2022/03/31 01:23:34;;;;;;;47.55;37.67;;;;;;;4.52;100.00;97388.09;2081346;28;20265;-70
2022/03/31 01:24:38;;;;;;;50.30;38.65;;;;;;;4.51;100.00;97387.31;2073346;28;20608;-70
2022/03/31 01:25:39;;;;;;;47.22;37.08;;;;;;;4.54;100.00;97399.16;2081560;28;20299;-70
2022/03/31 01:26:43;;;;;;;50.88;38.78;;;;;;;4.54;100.00;97396.50;2082052;28;20230;-70
2022/03/31 01:27:45;;;;;;;56.83;39.03;;;;;;;4.60;100.00;97395.31;2081693;28;20257;-70
2022/03/31 01:28:47;;;;;;;50.40;37.50;;;;;;;4.59;100.00;97400.88;2081436;28;20704;-71
2022/03/31 01:29:48;;;;;;;43.50;34.25;;;;;;;4.68;100.00;97402.53;2082750;28;20211;-70
2022/03/31 01:30:51;;;;;;;53.00;38.70;;;;;;;4.60;100.00;97397.16;2083744;28;20192;-70
2022/03/31 01:31:53;;;;;;;51.80;37.40;;;;;;;4.62;100.00;97397.66;2083735;28;20196;-71
2022/03/31 01:32:55;;;;;;;49.53;38.88;;;;;;;4.61;100.00;97388.97;2083657;28;20677;-70
2022/03/31 01:33:57;;;;;;;52.63;38.75;;;;;;;4.56;100.00;97386.41;2083821;28;20203;-70
2022/03/31 01:34:59;;;;;;;53.47;39.38;;;;;;;4.52;100.00;97396.81;2083772;28;20191;-71
2022/03/31 01:36:01;;;;;;;46.53;36.97;;;;;;;4.51;100.00;97402.38;2082522;28;20202;-71
2022/03/31 01:37:06;;;;;;;55.10;40.55;;;;;;;4.46;100.00;97395.34;2083250;28;20233;-71
2022/03/31 01:38:07;;;;;;;49.75;39.08;;;;;;;4.43;100.00;97403.88;2083886;28;20187;-70
2022/03/31 01:39:11;;;;;;;51.83;40.17;;;;;;;4.46;100.00;97400.63;2083833;28;20202;-70
2022/03/31 01:40:13;;;;;;;53.15;40.42;;;;;;;4.42;100.00;97393.59;2083701;28;20195;-71
2022/03/31 01:41:16;;;;;;;53.15;39.20;;;;;;;4.39;100.00;97396.81;2083695;28;20222;-71
2022/03/31 01:42:17;;;;;;;51.60;38.85;;;;;;;4.41;100.00;97407.88;2083724;28;20196;-70
2022/03/31 01:43:20;;;;;;;55.13;41.53;;;;;;;4.37;100.00;97391.84;2083715;28;20195;-71
2022/03/31 01:44:21;;;;;;;56.90;40.70;;;;;;;4.30;100.00;97398.59;2083693;28;20540;-70
2022/03/31 01:45:26;;;;;;;59.22;41.50;;;;;;;4.16;100.00;97395.97;2082992;28;20286;-70
2022/03/31 01:46:29;;;;;;;51.90;40.58;;;;;;;4.19;100.00;97395.41;2083092;28;20195;-70
2022/03/31 01:47:30;;;;;;;56.13;41.60;;;;;;;4.24;100.00;97397.91;2083612;28;20682;-71
2022/03/31 01:48:33;;;;;;;52.67;40.33;;;;;;;4.28;100.00;97398.13;2083637;28;20274;-70
2022/03/31 01:49:36;;;;;;;55.40;41.40;;;;;;;4.21;100.00;97387.97;2083487;28;20302;-70
2022/03/31 01:50:39;;;;;;;54.85;39.78;;;;;;;4.17;100.00;97394.88;2083349;28;20689;-70
2022/03/31 01:51:40;;;;;;;53.47;40.67;;;;;;;4.06;100.00;97394.31;2074920;28;20247;-71
2022/03/31 01:52:43;;;;;;;52.37;40.60;;;;;;;4.06;100.00;97396.94;2083045;28;20195;-70
2022/03/31 01:53:45;;;;;;;55.42;41.08;;;;;;;4.01;100.00;97398.94;2083176;28;20227;-70
2022/03/31 01:54:48;;;;;;;52.92;40.38;;;;;;;4.11;100.00;97399.50;2074752;28;20267;-70
2022/03/31 01:55:50;;;;;;;58.03;40.75;;;;;;;4.07;100.00;97400.38;2083019;28;20196;-70
2022/03/31 01:56:54;;;;;;;51.60;39.78;;;;;;;4.04;100.00;97398.34;2083805;28;20245;-70
2022/03/31 01:57:56;;;;;;;58.30;39.75;;;;;;;4.09;100.00;97398.25;2082879;28;20659;-70
2022/03/31 01:59:02;;;;;;;50.87;40.60;;;;;;;4.06;100.00;97404.09;2083058;28;20195;-70
2022/03/31 02:00:05;;;;;;;56.28;40.08;;;;;;;4.06;100.00;97398.81;2083822;28;20754;-70
2022/03/31 02:01:17;;;;;;;50.40;37.90;;;;;;;4.13;100.00;97391.28;2083201;28;20200;-70
2022/03/31 02:02:18;;;;;;;51.60;38.58;;;;;;;4.14;100.00;97398.13;2082943;28;20200;-70
2022/03/31 02:03:21;;;;;;;51.30;37.55;;;;;;;4.15;100.00;97397.03;2083644;28;20643;-70
2022/03/31 02:04:22;;;;;;;50.70;38.85;;;;;;;4.14;100.00;97392.84;2083544;28;20199;-70
2022/03/31 02:05:24;;;;;;;50.17;38.70;;;;;;;4.05;100.00;97395.41;2083124;28;20682;-70
2022/03/31 02:06:26;;;;;;;52.97;38.78;;;;;;;4.10;100.00;97397.16;2082732;28;20696;-70
2022/03/31 02:07:28;;;;;;;43.97;37.17;;;;;;;4.07;100.00;97390.59;2082799;28;20207;-70
2022/03/31 02:08:30;;;;;;;50.28;38.17;;;;;;;4.05;100.00;97389.34;2083035;28;20286;-70
2022/03/31 02:09:33;;;;;;;46.42;37.22;;;;;;;4.03;100.00;97399.41;2082809;28;20207;-70
2022/03/31 02:10:36;;;;;;;48.63;38.88;;;;;;;4.10;100.00;97391.88;2083104;28;20294;-70
2022/03/31 02:11:38;;;;;;;47.72;38.03;;;;;;;4.04;100.00;97398.34;2083507;28;20183;-70
2022/03/31 02:12:41;;;;;;;49.35;38.63;;;;;;;4.00;100.00;97394.69;2082825;28;20636;-71
2022/03/31 02:13:45;;;;;;;47.10;37.70;;;;;;;4.04;100.00;97393.84;2083011;28;20634;-71
2022/03/31 02:14:47;;;;;;;46.58;38.63;;;;;;;4.02;100.00;97395.22;2082718;28;20199;-71
2022/03/31 02:15:49;;;;;;;51.65;39.35;;;;;;;3.98;100.00;97390.50;2082823;28;20208;-70
2022/03/31 02:16:51;;;;;;;47.28;37.40;;;;;;;4.07;100.00;97393.22;2083493;28;20188;-70
2022/03/31 02:17:53;;;;;;;54.75;38.13;;;;;;;4.06;100.00;97404.09;2083444;28;20191;-70
2022/03/31 02:18:55;;;;;;;44.85;37.85;;;;;;;4.09;100.00;97401.66;2083466;28;20184;-70
2022/03/31 02:19:57;;;;;;;45.78;36.10;;;;;;;4.02;100.00;97398.63;2083429;28;20219;-71
2022/03/31 02:21:00;;;;;;;43.22;36.50;;;;;;;4.02;100.00;97413.69;2083009;28;20191;-70
2022/03/31 02:22:01;;;;;;;44.70;35.35;;;;;;;4.03;100.00;97400.19;2083201;28;20215;-70
2022/03/31 02:23:04;;;;;;;40.72;34.92;;;;;;;4.07;100.00;97405.66;2083347;28;20620;-70
2022/03/31 02:24:06;;;;;;;44.40;36.97;;;;;;;4.03;100.00;97415.25;2082975;28;20199;-70
2022/03/31 02:25:11;;;;;;;43.97;35.22;;;;;;;4.06;100.00;97404.09;2083015;28;20215;-71
2022/03/31 02:26:14;;;;;;;44.45;35.50;;;;;;;4.00;100.00;97403.44;2083389;28;20195;-70
2022/03/31 02:27:16;;;;;;;48.83;35.65;;;;;;;3.94;100.00;97405.38;2082519;28;20200;-71
2022/03/31 02:28:18;;;;;;;45.78;36.92;;;;;;;3.96;100.00;97408.50;2082917;28;20199;-70
2022/03/31 02:29:19;;;;;;;47.47;37.30;;;;;;;3.95;100.00;97404.28;2083350;28;20203;-71
2022/03/31 02:30:23;;;;;;;44.35;35.00;;;;;;;3.94;100.00;97409.88;2083383;28;20192;-70
2022/03/31 02:31:24;;;;;;;42.25;34.53;;;;;;;3.99;100.00;97404.47;2083442;28;20196;-70
2022/03/31 02:32:28;;;;;;;35.88;32.20;;;;;;;4.09;100.00;97403.53;2083449;28;20214;-70
2022/03/31 02:33:30;;;;;;;39.40;34.40;;;;;;;4.11;100.00;97398.72;2083294;28;20570;-70
2022/03/31 02:34:33;;;;;;;38.47;34.00;;;;;;;4.04;100.00;97393.06;2083569;28;20191;-70
2022/03/31 02:35:36;;;;;;;39.95;34.15;;;;;;;3.94;100.00;97394.03;2083389;28;20207;-71
2022/03/31 02:36:37;;;;;;;43.22;33.72;;;;;;;3.92;100.00;97396.97;2082957;28;20248;-70
2022/03/31 02:37:40;;;;;;;41.72;33.67;;;;;;;3.94;100.00;97399.31;2083427;28;20541;-70
2022/03/31 02:38:43;;;;;;;45.22;34.42;;;;;;;3.91;100.00;97399.91;2082608;28;20311;-70
2022/03/31 02:39:46;;;;;;;40.40;35.55;;;;;;;3.90;100.00;97391.19;2082574;28;20286;-71
2022/03/31 02:40:47;;;;;;;39.78;34.28;;;;;;;3.91;100.00;97395.41;2082789;28;20233;-70
2022/03/31 02:41:50;;;;;;;39.88;33.95;;;;;;;3.88;100.00;97395.97;2082927;28;20737;-70
2022/03/31 02:42:52;;;;;;;40.10;35.70;;;;;;;3.88;100.00;97393.34;2082943;28;20271;-71
2022/03/31 02:43:54;;;;;;;42.75;33.70;;;;;;;4.01;100.00;97389.16;2082471;28;20192;-71
2022/03/31 02:44:55;;;;;;;37.75;33.65;;;;;;;4.03;100.00;97394.13;2082680;28;20191;-70
2022/03/31 02:45:57;;;;;;;40.80;33.47;;;;;;;4.01;100.00;97386.50;2082610;28;20226;-71
2022/03/31 02:46:59;;;;;;;36.25;32.42;;;;;;;4.03;100.00;97386.22;2082793;28;20222;-70
2022/03/31 02:48:04;;;;;;;37.70;33.72;;;;;;;3.95;100.00;97385.03;2083425;28;20206;-70
2022/03/31 02:49:08;;;;;;;39.13;32.45;;;;;;;4.06;100.00;97383.75;2083181;28;20231;-70
2022/03/31 02:50:11;;;;;;;35.80;32.00;;;;;;;4.02;100.00;97384.66;2083223;28;20187;-70
2022/03/31 02:51:13;;;;;;;37.00;32.60;;;;;;;3.90;100.00;97385.13;2082711;28;20230;-70
2022/03/31 02:52:14;;;;;;;37.25;33.25;;;;;;;3.85;100.00;97393.16;2083457;28;20182;-70
2022/03/31 02:55:57;;;;;;;38.90;30.10;;;;;;;3.92;100.00;97386.41;2082468;28;20199;-71
2022/03/31 02:57:00;;;;;;;33.50;29.92;;;;;;;3.96;100.00;97386.59;2082576;28;20245;-70
2022/03/31 02:58:04;;;;;;;32.75;29.38;;;;;;;3.98;100.00;97385.22;2082412;28;20203;-70
2022/03/31 02:59:07;;;;;;;33.90;30.13;;;;;;;3.95;100.00;97385.03;2082837;28;20689;-70
2022/03/31 03:00:10;;;;;;;32.90;29.50;;;;;;;3.94;100.00;97394.03;2083098;28;20188;-70
2022/03/31 03:01:11;;;;;;;33.88;29.27;;;;;;;3.87;100.00;97389.16;2082753;28;20255;-70
2022/03/31 03:02:14;;;;;;;32.88;29.17;;;;;;;3.89;100.00;97389.63;2082528;28;20603;-70
2022/03/31 03:03:16;;;;;;;33.03;29.65;;;;;;;3.89;100.00;97391.47;2083307;28;20219;-70
2022/03/31 03:04:24;;;;;;;32.88;29.50;;;;;;;3.86;100.00;97392.09;2083257;28;20236;-70
2022/03/31 03:05:26;;;;;;;33.22;29.83;;;;;;;3.75;100.00;97401.25;2083192;28;20191;-70
2022/03/31 03:06:30;;;;;;;32.40;28.98;;;;;;;3.74;100.00;97408.41;2082714;28;20557;-70
2022/03/31 03:07:33;;;;;;;32.85;29.35;;;;;;;3.70;100.00;97410.03;2083230;28;20187;-70
2022/03/31 03:08:36;;;;;;;31.98;28.67;;;;;;;3.66;100.00;97403.78;2082330;28;20206;-70
2022/03/31 03:09:40;;;;;;;31.45;28.08;;;;;;;3.92;100.00;97399.63;2082501;28;20191;-70
2022/03/31 03:10:41;;;;;;;30.98;27.77;;;;;;;3.94;100.00;97409.88;2082388;28;20203;-70
2022/03/31 03:11:43;;;;;;;30.55;27.55;;;;;;;3.86;100.00;97403.41;2074508;28;20204;-70
2022/03/31 03:12:47;;;;;;;30.33;27.38;;;;;;;3.74;100.00;97400.50;2082441;28;20188;-70
2022/03/31 03:13:49;;;;;;;31.52;28.25;;;;;;;3.67;100.00;97392.16;2082506;28;20223;-70
2022/03/31 03:14:51;;;;;;;31.88;28.88;;;;;;;3.64;100.00;97403.28;2074245;28;20204;-70
2022/03/31 03:15:55;;;;;;;31.15;28.15;;;;;;;3.66;100.00;97396.66;2074276;28;20197;-70
2022/03/31 03:16:59;;;;;;;29.70;26.73;;;;;;;3.66;100.00;97404.56;2082297;28;20199;-70
2022/03/31 03:18:01;;;;;;;29.13;26.30;;;;;;;3.65;100.00;97405.66;2074571;28;20283;-70
2022/03/31 03:19:03;;;;;;;30.25;27.15;;;;;;;3.64;100.00;97406.69;2082403;28;20187;-70
2022/03/31 03:20:06;;;;;;;29.58;26.85;;;;;;;3.62;100.00;97408.06;2081909;28;20682;-71
2022/03/31 03:21:08;;;;;;;29.05;26.25;;;;;;;3.59;100.00;97398.91;2074073;28;20578;-71
2022/03/31 03:22:11;;;;;;;29.75;26.85;;;;;;;3.56;100.00;97407.41;2082345;28;20214;-70
2022/03/31 03:23:12;;;;;;;29.80;26.90;;;;;;;3.55;100.00;97412.94;2082972;28;20257;-70
2022/03/31 03:24:14;;;;;;;30.80;27.80;;;;;;;3.60;100.00;97408.38;2083070;28;20196;-70
2022/03/31 03:25:15;;;;;;;29.55;26.65;;;;;;;3.63;100.00;97407.00;2083160;28;20434;-70
2022/03/31 03:26:17;;;;;;;29.10;26.30;;;;;;;3.62;100.00;97410.72;2082935;28;20187;-70
2022/03/31 03:27:19;;;;;;;29.13;26.23;;;;;;;3.58;100.00;97405.25;2082189;28;20203;-70
2022/03/31 03:28:22;;;;;;;28.73;25.85;;;;;;;3.59;100.00;97406.03;2074057;28;20204;-70
2022/03/31 03:29:23;;;;;;;29.02;26.30;;;;;;;3.57;100.00;97411.59;2082219;28;20199;-70
2022/03/31 03:30:25;;;;;;;31.17;28.17;;;;;;;3.58;100.00;97412.38;2074311;28;20206;-70
2022/03/31 03:31:27;;;;;;;30.42;27.48;;;;;;;3.65;100.00;97410.94;2082282;28;20188;-70
2022/03/31 03:32:29;;;;;;;31.38;28.17;;;;;;;3.65;100.00;97410.16;2082859;28;20294;-70
2022/03/31 03:33:31;;;;;;;30.05;26.92;;;;;;;3.70;100.00;97417.94;2082177;28;20204;-70
2022/03/31 03:34:33;;;;;;;30.05;27.10;;;;;;;3.68;100.00;97412.19;2082492;28;20188;-70
2022/03/31 03:35:34;;;;;;;30.42;27.33;;;;;;;3.67;100.00;97410.63;2082956;28;20192;-70
2022/03/31 03:36:36;;;;;;;29.40;26.45;;;;;;;3.67;100.00;97403.50;2082127;28;20223;-71
2022/03/31 03:37:38;;;;;;;30.88;27.83;;;;;;;3.67;100.00;97410.63;2082328;28;20245;-70
2022/03/31 03:38:41;;;;;;;30.95;27.85;;;;;;;3.66;100.00;97407.22;2082015;28;20203;-70
2022/03/31 03:39:44;;;;;;;30.45;27.55;;;;;;;3.58;100.00;97404.47;2082485;28;20704;-70
2022/03/31 03:40:46;;;;;;;30.58;27.58;;;;;;;3.57;100.00;97411.59;2082997;28;20595;-71
2022/03/31 03:41:47;;;;;;;30.77;27.88;;;;;;;3.58;100.00;97407.88;2082279;28;20269;-71
2022/03/31 03:42:49;;;;;;;31.00;28.10;;;;;;;3.77;100.00;97405.16;2082191;28;20191;-70
2022/03/31 03:43:52;;;;;;;30.58;27.52;;;;;;;3.75;100.00;97401.25;2082937;28;20196;-71
2022/03/31 03:44:56;;;;;;;30.38;27.25;;;;;;;3.72;100.00;97404.47;2082807;28;20188;-70
2022/03/31 03:45:58;;;;;;;30.75;27.65;;;;;;;3.74;100.00;97403.13;2082756;28;20195;-71
2022/03/31 03:47:00;;;;;;;30.45;27.40;;;;;;;3.82;100.00;97414.81;2082359;28;20234;-70
2022/03/31 03:48:02;;;;;;;28.88;26.08;;;;;;;3.74;100.00;97413.69;2082195;28;20191;-70
2022/03/31 03:49:04;;;;;;;29.55;26.60;;;;;;;3.64;100.00;97422.53;2082615;28;20584;-70
2022/03/31 03:50:06;;;;;;;28.85;26.15;;;;;;;3.68;100.00;97412.19;2082758;28;20218;-70
2022/03/31 03:51:09;;;;;;;30.33;27.42;;;;;;;3.71;100.00;97416.09;2082192;28;20660;-70
2022/03/31 03:52:10;;;;;;;30.02;26.98;;;;;;;3.69;100.00;97422.44;2081794;28;20200;-70
2022/03/31 03:53:14;;;;;;;30.13;27.50;;;;;;;3.63;100.00;97415.69;2073639;28;20212;-70
2022/03/31 03:54:16;;;;;;;29.92;27.23;;;;;;;3.64;100.00;97413.84;2082263;28;20260;-70
2022/03/31 03:55:18;;;;;;;30.58;27.67;;;;;;;3.63;100.00;97414.91;2090397;28;20646;-70
2022/03/31 03:56:19;;;;;;;30.05;27.33;;;;;;;3.69;100.00;97408.47;2082885;28;20199;-70
2022/03/31 03:57:23;;;;;;;31.52;28.45;;;;;;;3.71;100.00;97416.88;2082631;28;20274;-70
2022/03/31 03:58:26;;;;;;;29.65;27.08;;;;;;;3.64;100.00;97413.84;2082532;28;20674;-70
2022/03/31 03:59:31;;;;;;;28.73;26.23;;;;;;;3.69;100.00;97417.16;2074667;28;20558;-70
2022/03/31 04:00:34;;;;;;;29.75;27.10;;;;;;;3.74;100.00;97411.03;2082177;28;20214;-70
2022/03/31 04:01:37;;;;;;;28.55;26.13;;;;;;;3.74;100.00;97418.94;2081914;28;20254;-71
2022/03/31 04:02:38;;;;;;;28.30;25.90;;;;;;;3.67;100.00;97411.41;2081965;28;20205;-71
2022/03/31 04:03:40;;;;;;;29.45;26.88;;;;;;;3.62;100.00;97413.34;2090207;28;20187;-70
2022/03/31 04:04:41;;;;;;;28.67;26.15;;;;;;;3.66;100.00;97412.50;2082590;28;20199;-70
2022/03/31 04:05:45;;;;;;;27.92;25.45;;;;;;;3.60;100.00;97404.94;2081816;28;20290;-70
2022/03/31 04:06:47;;;;;;;27.80;25.27;;;;;;;3.63;100.00;97409.63;2074244;28;20290;-71
2022/03/31 04:07:51;;;;;;;27.90;25.23;;;;;;;3.62;100.00;97402.78;2082008;28;20242;-70
2022/03/31 04:08:52;;;;;;;26.95;24.65;;;;;;;3.59;100.00;97411.31;2081946;28;20226;-70
2022/03/31 04:09:55;;;;;;;27.00;24.60;;;;;;;3.71;100.00;97416.09;2081876;28;20199;-70
2022/03/31 04:10:56;;;;;;;26.70;24.40;;;;;;;3.80;100.00;97409.84;2073864;28;20200;-70
2022/03/31 04:11:58;;;;;;;26.40;23.90;;;;;;;3.85;100.00;97417.69;2081927;28;20187;-70
2022/03/31 04:13:00;;;;;;;27.30;24.90;;;;;;;3.78;100.00;97421.78;2081821;28;20204;-70
2022/03/31 04:14:02;;;;;;;26.38;24.20;;;;;;;3.71;100.00;97416.88;2073670;28;20235;-70
2022/03/31 04:15:06;;;;;;;25.40;23.17;;;;;;;3.79;100.00;97431.25;2082234;28;20673;-70
2022/03/31 04:16:10;;;;;;;27.10;24.70;;;;;;;3.67;100.00;97423.81;2082576;28;20192;-70
2022/03/31 04:17:11;;;;;;;25.88;23.67;;;;;;;3.59;100.00;97424.50;2082545;28;20667;-71
2022/03/31 04:18:13;;;;;;;27.47;24.87;;;;;;;3.57;100.00;97426.63;2082573;28;20221;-70
2022/03/31 04:19:15;;;;;;;26.80;24.40;;;;;;;3.50;100.00;97426.22;2081702;28;20451;-70
2022/03/31 04:20:17;;;;;;;27.45;25.10;;;;;;;3.46;100.00;97433.91;2073723;28;20672;-70
2022/03/31 04:21:18;;;;;;;27.15;24.85;;;;;;;3.49;100.00;97428.09;2081470;28;20725;-70
2022/03/31 04:22:21;;;;;;;28.23;25.83;;;;;;;3.59;100.00;97429.75;2082735;28;20195;-70
2022/03/31 04:23:23;;;;;;;26.70;24.40;;;;;;;3.63;100.00;97436.78;2082434;28;20206;-70
2022/03/31 04:24:25;;;;;;;27.08;24.67;;;;;;;3.68;100.00;97428.78;2081723;28;20578;-70
2022/03/31 04:25:27;;;;;;;27.27;24.77;;;;;;;3.61;100.00;97432.88;2081958;28;20194;-70
2022/03/31 04:26:28;;;;;;;26.48;24.05;;;;;;;3.57;100.00;97437.97;2082397;28;20202;-70
2022/03/31 04:27:30;;;;;;;27.02;24.52;;;;;;;3.58;100.00;97438.75;2081736;28;20383;-70
2022/03/31 04:28:32;;;;;;;26.88;24.48;;;;;;;3.62;100.00;97442.34;2073661;28;20232;-70
2022/03/31 04:29:34;;;;;;;27.15;24.73;;;;;;;3.57;100.00;97445.09;2073663;28;20207;-70
2022/03/31 04:30:38;;;;;;;27.35;24.92;;;;;;;3.53;100.00;97441.47;2081835;28;20196;-70
2022/03/31 04:31:43;;;;;;;26.80;24.45;;;;;;;3.57;100.00;97440.59;2089681;28;20273;-70
2022/03/31 04:32:44;;;;;;;26.40;24.20;;;;;;;3.61;100.00;97443.44;2082354;28;20219;-70
2022/03/31 04:33:47;;;;;;;26.98;24.70;;;;;;;3.60;100.00;97444.50;2082402;28;20183;-70
2022/03/31 04:34:48;;;;;;;26.67;24.38;;;;;;;3.61;100.00;97446.06;2082438;28;20249;-70
2022/03/31 04:35:52;;;;;;;26.38;24.17;;;;;;;3.59;100.00;97445.59;2082018;28;20258;-70
2022/03/31 04:36:56;;;;;;;26.35;24.20;;;;;;;3.53;100.00;97442.25;2081644;28;20592;-70
2022/03/31 04:38:00;;;;;;;26.17;24.08;;;;;;;3.44;100.00;97437.91;2081664;28;20206;-71
2022/03/31 04:39:01;;;;;;;26.13;24.02;;;;;;;3.38;100.00;97443.25;2081910;28;20658;-70
2022/03/31 04:40:04;;;;;;;25.92;23.83;;;;;;;3.43;100.00;97446.91;2081891;28;20690;-70
2022/03/31 04:41:06;;;;;;;25.05;22.98;;;;;;;3.42;100.00;97447.97;2073974;28;20255;-70
2022/03/31 04:42:09;;;;;;;25.60;23.40;;;;;;;3.40;100.00;97443.00;2081613;28;20249;-70
2022/03/31 04:43:10;;;;;;;26.42;24.00;;;;;;;3.37;100.00;97441.69;2081941;28;20738;-70
2022/03/31 04:44:12;;;;;;;24.37;22.47;;;;;;;3.36;100.00;97445.41;2081560;28;20605;-70
2022/03/31 04:45:15;;;;;;;24.92;22.60;;;;;;;3.36;100.00;97445.41;2081931;28;20431;-70
2022/03/31 04:46:19;;;;;;;24.17;21.95;;;;;;;3.33;100.00;97445.22;2082318;28;20197;-70
2022/03/31 04:47:21;;;;;;;25.55;23.25;;;;;;;3.29;100.00;97444.22;2082297;28;20722;-70
2022/03/31 04:48:23;;;;;;;25.25;23.08;;;;;;;3.24;100.00;97450.38;2081316;28;20211;-70
2022/03/31 04:49:26;;;;;;;26.42;24.05;;;;;;;3.15;100.00;97452.09;2073314;28;20232;-70
2022/03/31 04:50:29;;;;;;;25.83;23.25;;;;;;;3.16;100.00;97456.28;2081729;28;20219;-70